Time;durP1;ratioP1;P1;durP2;ratioP2;P2;SDS_P1;SDS_P2;PMS_P1;PMS_P2;Temp;Humidity;BMP_temperature;BMP_pressure;BME280_temperature;BME280_humidity;BME280_pressure;Samples;Min_cycle;Max_cycle;Signal;HPM_P1;HPM_P2
2022/01/30 00:01:25;;;;;;;;;;;;;;;4.93;68.94;102149.56;6242449;23;20043;-76
2022/01/30 00:03:50;;;;;;;;;;;;;;;4.97;69.92;102150.88;6243985;23;19911;-74
2022/01/30 00:06:16;;;;;;;;;;;;;;;5.03;69.73;102155.56;6192822;23;19993;-74
2022/01/30 00:08:41;;;;;;;;;;;;;;;5.02;68.85;102153.88;6223666;23;20338;-81
2022/01/30 00:11:16;;;;;;;;;;;;;;;4.96;68.46;102168.16;6246115;23;19908;-79
2022/01/30 00:13:41;;;;;;;;;;;;;;;4.89;69.38;102169.94;6219111;23;19939;-78
2022/01/30 00:16:10;;;;;;;;;;;;;;;4.80;68.71;102165.63;6217317;23;19957;-76
2022/01/30 00:23:56;;;;;;;;;;;;;;;4.47;69.10;102149.72;6255839;23;19986;-74
2022/01/30 00:26:28;;;;;;;;;;;;;;;4.37;69.33;102145.38;6217292;23;20341;-78
2022/01/30 00:28:55;;;;;;;;;;;;;;;4.29;69.54;102142.75;6218662;23;20283;-78
2022/01/30 00:31:23;;;;;;;;;;;;;;;4.23;70.09;102151.56;6217583;23;19914;-75
2022/01/30 00:33:48;;;;;;;;;;;;;;;4.21;70.08;102159.06;6243838;23;20310;-76
2022/01/30 00:36:14;;;;;;;;;;;;;;;4.21;70.75;102164.47;6217383;23;19935;-76
2022/01/30 00:38:39;;;;;;;;;;;;;;;4.23;70.46;102167.00;6243518;23;19907;-77
2022/01/30 00:41:10;;;;;;;;;;;;;;;4.27;70.83;102155.63;6216641;23;20368;-77
2022/01/30 00:43:35;;;;;;;;;;;;;;;4.30;70.85;102165.25;6190617;23;19908;-77
2022/01/30 00:46:00;;;;;;;;;;;;;;;4.33;71.20;102154.88;6245261;23;19904;-78
2022/01/30 00:48:26;;;;;;;;;;;;;;;4.33;70.97;102152.16;6215547;23;19963;-77
2022/01/30 00:50:52;;;;;;;;;;;;;;;4.35;70.92;102157.41;6217532;23;19919;-77
2022/01/30 00:53:19;;;;;;;;;;;;;;;4.37;70.69;102166.22;6218302;23;19912;-77
2022/01/30 00:55:45;;;;;;;;;;;;;;;4.40;71.38;102165.00;6218580;23;19907;-77
2022/01/30 00:58:10;;;;;;;;;;;;;;;4.43;70.76;102164.63;6192034;23;19911;-77
2022/01/30 01:00:43;;;;;;;;;;;;;;;4.45;71.21;102162.56;6243818;23;19908;-77
2022/01/30 01:03:09;;;;;;;;;;;;;;;4.47;70.87;102165.97;6241275;23;19904;-79
2022/01/30 01:05:35;;;;;;;;;;;;;;;4.48;70.87;102167.63;6218071;23;20010;-78
2022/01/30 01:08:10;;;;;;;;;;;;;;;4.48;71.85;102173.91;6243876;23;19907;-78
2022/01/30 01:10:44;;;;;;;;;;;;;;;4.48;71.17;102162.22;6215821;23;19904;-78
2022/01/30 01:13:27;;;;;;;;;;;;;;;4.47;71.65;102147.84;6207373;22;19961;-78
2022/01/30 01:24:07;;;;;;;;;;;;;;;4.52;71.26;102152.69;6253238;23;19910;-78
2022/01/30 01:26:42;;;;;;;;;;;;;;;4.51;71.88;102146.44;6216075;23;19903;-77
2022/01/30 01:29:08;;;;;;;;;;;;;;;4.49;71.39;102153.91;6217621;23;19908;-78
2022/01/30 01:31:33;;;;;;;;;;;;;;;4.48;71.27;102156.78;6216829;23;19992;-79
2022/01/30 01:36:24;;;;;;;;;;;;;;;4.43;72.15;102143.78;6253267;23;19915;-77
2022/01/30 01:39:01;;;;;;;;;;;;;;;4.45;71.50;102157.16;6193178;23;19914;-77
2022/01/30 01:41:29;;;;;;;;;;;;;;;4.44;71.83;102160.88;6217654;23;19917;-78
2022/01/30 01:43:58;;;;;;;;;;;;;;;4.42;71.67;102165.66;6219592;23;19970;-78
2022/01/30 01:46:34;;;;;;;;;;;;;;;4.41;71.36;102161.25;6192478;23;19908;-78
2022/01/30 01:49:00;;;;;;;;;;;;;;;4.37;72.18;102161.63;6217667;23;20302;-78
2022/01/30 01:51:31;;;;;;;;;;;;;;;4.34;71.96;102155.75;6216783;22;20023;-76
2022/01/30 01:54:00;;;;;;;;;;;;;;;4.31;71.64;102167.78;6244562;23;19929;-77
2022/01/30 01:56:26;;;;;;;;;;;;;;;4.29;72.39;102168.97;6215768;23;19903;-77
2022/01/30 01:58:51;;;;;;;;;;;;;;;4.25;72.63;102173.91;6243506;23;19978;-77
2022/01/30 02:01:20;;;;;;;;;;;;;;;4.26;72.04;102169.34;6217980;23;19985;-77
2022/01/30 02:03:48;;;;;;;;;;;;;;;4.27;72.86;102161.03;6216818;23;20295;-78
2022/01/30 02:06:22;;;;;;;;;;;;;;;4.25;72.09;102163.09;6215406;23;19915;-78
2022/01/30 02:08:53;;;;;;;;;;;;;;;4.22;72.75;102170.72;6216702;23;19903;-77
2022/01/30 02:11:33;;;;;;;;;;;;;;;4.18;72.25;102183.78;6245727;23;19908;-77
2022/01/30 02:27:22;;;;;;;;;;;;;;;4.02;72.37;102179.31;6253556;23;19904;-76
2022/01/30 02:29:48;;;;;;;;;;;;;;;3.95;72.81;102183.78;6213895;23;20226;-78
2022/01/30 02:32:21;;;;;;;;;;;;;;;3.88;72.69;102193.63;6191867;23;19912;-77
2022/01/30 02:34:50;;;;;;;;;;;;;;;3.81;72.47;102196.19;6242309;23;19907;-76
2022/01/30 02:37:17;;;;;;;;;;;;;;;3.79;73.17;102185.53;6241181;23;19907;-78
2022/01/30 02:39:42;;;;;;;;;;;;;;;3.84;73.09;102179.59;6218340;23;19910;-77
2022/01/30 02:42:08;;;;;;;;;;;;;;;3.88;73.38;102189.03;6214406;23;19904;-76
2022/01/30 02:44:50;;;;;;;;;;;;;;;3.88;73.51;102205.28;6242223;23;19907;-77
2022/01/30 02:47:36;;;;;;;;;;;;;;;3.87;72.92;102203.63;6220430;23;19908;-77
2022/01/30 02:50:20;;;;;;;;;;;;;;;3.88;73.18;102191.75;6218285;23;19954;-78
2022/01/30 02:52:55;;;;;;;;;;;;;;;3.89;72.98;102174.50;6245200;22;19915;-73
2022/01/30 02:55:23;;;;;;;;;;;;;;;3.88;73.64;102170.09;6216906;23;19918;-74
2022/01/30 02:57:56;;;;;;;;;;;;;;;3.87;73.65;102171.13;6243667;23;20625;-74
2022/01/30 03:00:28;;;;;;;;;;;;;;;3.86;73.53;102168.63;6243940;23;19958;-72
2022/01/30 03:02:56;;;;;;;;;;;;;;;3.87;73.54;102167.56;6214295;23;19904;-72
2022/01/30 03:05:21;;;;;;;;;;;;;;;3.88;73.42;102166.56;6215189;23;19965;-73
2022/01/30 03:07:47;;;;;;;;;;;;;;;3.86;73.15;102180.28;6240004;23;20314;-72
2022/01/30 03:10:22;;;;;;;;;;;;;;;;;;;;;
2022/01/30 03:12:58;;;;;;;;;;;;;;;;;;;;;
2022/01/30 03:15:28;;;;;;;;;;;;;;;3.75;73.27;102161.72;6242327;23;19986;-72
2022/01/30 03:17:53;;;;;;;;;;;;;;;3.75;74.02;102154.47;6216983;23;19904;-71
2022/01/30 03:20:21;;;;;;;;;;;;;;;3.73;74.36;102158.38;6215979;23;19938;-72
2022/01/30 03:22:56;;;;;;;;;;;;;;;;;;;;;
2022/01/30 03:25:22;;;;;;;;;;;;;;;3.67;73.62;102160.75;6243633;23;19986;-72
2022/01/30 03:27:52;;;;;;;;;;;;;;;3.65;73.79;102160.09;6211070;23;19939;-72
2022/01/30 03:30:37;;;;;;;;;;;;;;;3.62;73.55;102162.28;6217023;23;19914;-71
2022/01/30 03:33:03;;;;;;;;;;;;;;;3.59;73.53;102163.53;6216918;23;19907;-72
2022/01/30 03:35:28;;;;;;;;;;;;;;;3.58;73.59;102161.81;6215292;23;19969;-71
2022/01/30 03:37:56;;;;;;;;;;;;;;;3.57;73.67;102165.53;6243006;23;19908;-72
2022/01/30 03:40:21;;;;;;;;;;;;;;;3.55;73.60;102155.91;6215322;23;19903;-72
2022/01/30 03:42:47;;;;;;;;;;;;;;;3.52;73.57;102157.13;6241395;23;20345;-71
2022/01/30 03:45:12;;;;;;;;;;;;;;;3.46;73.49;102144.28;6243521;23;20597;-71
2022/01/30 03:47:47;;;;;;;;;;;;;;;;;;;;;
2022/01/30 03:50:15;;;;;;;;;;;;;;;3.36;73.75;102157.19;6243888;23;19983;-72
2022/01/30 03:52:41;;;;;;;;;;;;;;;3.31;73.80;102155.88;6220785;22;19946;-71
2022/01/30 03:55:08;;;;;;;;;;;;;;;3.30;73.87;102165.00;6225159;23;19908;-71
2022/01/30 03:57:41;;;;;;;;;;;;;;;3.28;73.67;102160.78;6254970;23;19908;-72
2022/01/30 04:00:07;;;;;;;;;;;;;;;3.23;73.65;102147.78;6214308;23;19931;-73
2022/01/30 04:02:32;;;;;;;;;;;;;;;3.21;73.50;102149.78;6217500;23;20310;-72
2022/01/30 04:04:57;;;;;;;;;;;;;;;3.17;73.49;102158.44;6215201;23;19907;-73
2022/01/30 04:07:30;;;;;;;;;;;;;;;3.15;74.15;102161.31;6214804;23;19907;-72
2022/01/30 04:09:56;;;;;;;;;;;;;;;3.15;73.95;102161.31;6216031;23;19918;-71
2022/01/30 04:12:21;;;;;;;;;;;;;;;3.14;73.71;102170.47;6215889;23;19911;-71
2022/01/30 04:14:47;;;;;;;;;;;;;;;3.11;73.68;102159.97;6214306;23;19915;-72
2022/01/30 04:17:18;;;;;;;;;;;;;;;3.08;74.00;102165.72;6243446;23;20383;-72
2022/01/30 04:19:46;;;;;;;;;;;;;;;3.04;74.01;102169.78;6241760;23;19904;-72
2022/01/30 04:22:11;;;;;;;;;;;;;;;3.02;73.97;102177.25;6243177;23;19907;-72
2022/01/30 04:24:37;;;;;;;;;;;;;;;2.99;73.63;102177.59;6216054;23;20376;-71
2022/01/30 04:27:02;;;;;;;;;;;;;;;2.92;73.63;102178.28;6213819;23;20583;-70
2022/01/30 04:29:28;;;;;;;;;;;;;;;2.84;73.61;102167.47;6244075;23;19908;-72
2022/01/30 04:31:56;;;;;;;;;;;;;;;2.76;73.64;102164.78;6216666;23;20233;-78
2022/01/30 04:34:22;;;;;;;;;;;;;;;2.69;73.92;102174.63;6219150;23;19914;-78
2022/01/30 04:37:29;;;;;;;;;;;;;;;2.65;74.09;102186.78;6242428;23;19957;-77
2022/01/30 04:59:29;;;;;;;;;;;;;;;2.62;74.32;102188.78;6255241;23;19915;-78
2022/01/30 05:01:18;;;;;;;;;;;;;;;2.66;74.72;102177.63;6218525;23;19978;-80
2022/01/30 05:04:01;;;;;;;;;;;;;;;2.69;74.50;102163.81;6218107;23;19903;-80
2022/01/30 05:06:55;;;;;;;;;;;;;;;2.71;74.69;102175.28;6217927;23;19907;-79
2022/01/30 05:09:17;;;;;;;;;;;;;;;2.69;74.97;102180.03;6242541;23;20378;-79
2022/01/30 05:11:50;;;;;;;;;;;;;;;2.72;75.13;102174.28;6217887;23;19907;-79
2022/01/30 05:14:27;;;;;;;;;;;;;;;2.70;75.18;102169.03;6241392;23;19907;-78
2022/01/30 05:16:53;;;;;;;;;;;;;;;2.70;75.01;102173.59;6245036;23;20362;-77
2022/01/30 05:19:26;;;;;;;;;;;;;;;2.70;75.18;102178.97;6218143;23;19938;-78
2022/01/30 05:21:51;;;;;;;;;;;;;;;2.70;75.02;102168.19;6217920;23;20274;-79
2022/01/30 05:24:20;;;;;;;;;;;;;;;2.70;75.19;102168.19;6242531;23;19989;-78
2022/01/30 05:26:56;;;;;;;;;;;;;;;2.70;75.16;102181.69;6216587;23;20311;-78
2022/01/30 05:29:22;;;;;;;;;;;;;;;2.70;75.01;102177.16;6194810;23;19931;-77
2022/01/30 05:31:47;;;;;;;;;;;;;;;2.69;75.32;102172.75;6244916;23;19910;-78
2022/01/30 05:34:13;;;;;;;;;;;;;;;2.67;75.14;102163.94;6192307;23;19911;-78
2022/01/30 05:36:49;;;;;;;;;;;;;;;;;;;;;
2022/01/30 05:39:14;;;;;;;;;;;;;;;2.66;75.26;102183.03;6243637;23;20397;-80
2022/01/30 05:41:46;;;;;;;;;;;;;;;2.64;75.23;102172.41;6245098;23;19903;-80
2022/01/30 05:44:16;;;;;;;;;;;;;;;2.64;75.48;102163.47;6201054;23;19950;-80
2022/01/30 05:46:51;;;;;;;;;;;;;;;2.64;75.52;102163.47;6234126;23;19904;-79
2022/01/30 05:49:21;;;;;;;;;;;;;;;2.62;75.61;102180.69;6229326;23;19903;-80
2022/01/30 05:51:54;;;;;;;;;;;;;;;2.61;75.61;102176.31;6218899;22;19915;-81
2022/01/30 05:54:19;;;;;;;;;;;;;;;2.58;75.32;102160.41;6218595;23;20314;-78
2022/01/30 05:56:45;;;;;;;;;;;;;;;2.51;75.25;102159.44;6243423;23;19926;-77
2022/01/30 05:59:10;;;;;;;;;;;;;;;2.45;75.51;102165.50;6218379;23;20274;-79
2022/01/30 06:01:40;;;;;;;;;;;;;;;2.42;75.30;102172.09;6243588;23;19907;-78
2022/01/30 06:04:06;;;;;;;;;;;;;;;2.43;75.49;102179.16;6218221;23;19911;-78
2022/01/30 06:06:31;;;;;;;;;;;;;;;2.44;75.52;102180.03;6216963;23;19954;-78
2022/01/30 06:09:18;;;;;;;;;;;;;;;2.43;75.55;102183.72;6217562;23;19965;-78
2022/01/30 06:11:51;;;;;;;;;;;;;;;2.38;75.39;102188.78;6217339;23;19907;-78
2022/01/30 06:14:20;;;;;;;;;;;;;;;2.32;75.34;102186.75;6217536;23;19995;-78
2022/01/30 06:16:53;;;;;;;;;;;;;;;2.25;75.44;102192.84;6217920;23;19903;-77
2022/01/30 06:19:19;;;;;;;;;;;;;;;2.22;75.47;102193.19;6215852;23;19903;-78
2022/01/30 06:21:45;;;;;;;;;;;;;;;2.18;75.32;102189.13;6243763;23;19911;-77
2022/01/30 06:24:10;;;;;;;;;;;;;;;2.13;75.36;102183.38;6217069;23;20269;-79
2022/01/30 06:26:45;;;;;;;;;;;;;;;2.07;75.63;102201.09;6219900;23;19908;-79
2022/01/30 06:29:12;;;;;;;;;;;;;;;2.03;75.36;102209.66;6222438;23;20377;-81
2022/01/30 06:31:38;;;;;;;;;;;;;;;2.00;75.76;102204.59;6219165;23;19910;-79
2022/01/30 06:34:18;;;;;;;;;;;;;;;1.95;75.70;102204.28;6219152;23;19911;-78
2022/01/30 06:36:43;;;;;;;;;;;;;;;1.90;75.92;102199.38;6219219;23;19911;-79
2022/01/30 06:39:10;;;;;;;;;;;;;;;1.85;75.50;102197.16;6219656;23;19904;-79
2022/01/30 06:41:36;;;;;;;;;;;;;;;1.84;76.03;102195.47;6195323;23;19934;-79
2022/01/30 06:44:09;;;;;;;;;;;;;;;1.84;75.90;102211.66;6244167;23;20302;-80
2022/01/30 06:46:39;;;;;;;;;;;;;;;1.87;76.02;102214.03;6220109;23;19935;-78
2022/01/30 06:49:07;;;;;;;;;;;;;;;1.88;76.09;102202.25;6246007;23;19958;-79
2022/01/30 06:51:33;;;;;;;;;;;;;;;1.91;76.18;102201.91;6246088;22;19927;-78
2022/01/30 06:54:00;;;;;;;;;;;;;;;1.91;76.37;102207.31;6218083;23;20305;-78
2022/01/30 06:56:26;;;;;;;;;;;;;;;1.97;76.50;102205.81;6246288;23;19954;-79
2022/01/30 06:58:55;;;;;;;;;;;;;;;1.98;76.36;102206.63;6217705;23;19953;-77
2022/01/30 07:01:28;;;;;;;;;;;;;;;1.96;76.65;102204.09;6223578;23;19938;-77
2022/01/30 07:03:53;;;;;;;;;;;;;;;1.94;76.32;102194.47;6246843;23;19911;-77
2022/01/30 07:06:19;;;;;;;;;;;;;;;1.90;76.86;102194.81;6195003;23;19908;-78
2022/01/30 07:08:45;;;;;;;;;;;;;;;1.86;76.62;102204.22;6252194;23;19931;-77
2022/01/30 07:11:10;;;;;;;;;;;;;;;1.84;76.82;102195.47;6250888;23;19926;-78
2022/01/30 07:13:35;;;;;;;;;;;;;;;1.83;76.85;102199.19;6225708;23;20736;-80
2022/01/30 07:16:03;;;;;;;;;;;;;;;1.81;76.93;102206.59;6251095;23;19910;-77
2022/01/30 07:18:28;;;;;;;;;;;;;;;1.80;77.21;102204.06;6244855;23;19907;-77
2022/01/30 07:20:54;;;;;;;;;;;;;;;1.78;76.70;102190.72;6219775;23;19904;-78
2022/01/30 07:23:29;;;;;;;;;;;;;;;1.79;76.68;102199.66;6216929;23;20229;-78
2022/01/30 07:26:05;;;;;;;;;;;;;;;1.76;77.20;102195.44;6222097;23;19907;-78
2022/01/30 07:28:43;;;;;;;;;;;;;;;;;;;;;
2022/01/30 07:31:08;;;;;;;;;;;;;;;1.71;76.50;102204.03;6247106;23;19987;-78
2022/01/30 07:33:35;;;;;;;;;;;;;;;1.69;77.40;102203.34;6245018;23;19943;-77
2022/01/30 07:36:01;;;;;;;;;;;;;;;1.69;76.90;102202.50;6194909;23;20246;-78
2022/01/30 07:38:27;;;;;;;;;;;;;;;1.68;76.90;102206.19;6217294;23;20302;-77
2022/01/30 07:40:53;;;;;;;;;;;;;;;1.64;76.45;102215.66;6246013;23;19931;-77
2022/01/30 07:43:20;;;;;;;;;;;;;;;1.61;76.35;102222.19;6245791;23;19926;-79
2022/01/30 07:45:46;;;;;;;;;;;;;;;1.60;76.96;102215.09;6218037;23;20315;-79
2022/01/30 07:48:18;;;;;;;;;;;;;;;1.60;76.98;102219.66;6218195;23;19965;-80
2022/01/30 07:50:53;;;;;;;;;;;;;;;1.59;76.60;102220.66;6219965;23;19965;-79
2022/01/30 07:53:18;;;;;;;;;;;;;;;1.57;76.55;102221.66;6245281;22;19915;-77
2022/01/30 07:55:53;;;;;;;;;;;;;;;1.57;76.78;102226.22;6218701;23;19978;-78
2022/01/30 07:58:19;;;;;;;;;;;;;;;1.59;76.38;102224.19;6237669;23;19917;-76
2022/01/30 08:00:44;;;;;;;;;;;;;;;1.60;76.49;102225.06;6240206;23;19903;-77
2022/01/30 08:03:09;;;;;;;;;;;;;;;1.62;76.85;102228.44;6263376;22;19912;-76
2022/01/30 08:05:36;;;;;;;;;;;;;;;1.63;76.78;102224.72;6251845;23;19991;-79
2022/01/30 08:08:02;;;;;;;;;;;;;;;1.65;77.00;102222.72;6219761;23;19907;-77
2022/01/30 08:10:33;;;;;;;;;;;;;;;1.68;76.63;102230.47;6219446;23;20319;-80
2022/01/30 08:12:58;;;;;;;;;;;;;;;1.73;76.70;102236.22;6247864;23;19911;-79
2022/01/30 08:15:24;;;;;;;;;;;;;;;1.77;76.66;102248.41;6247682;23;19941;-78
2022/01/30 08:17:49;;;;;;;;;;;;;;;1.82;77.02;102235.25;6194948;23;19985;-78
2022/01/30 08:20:15;;;;;;;;;;;;;;;1.90;76.64;102237.97;6245357;23;20211;-76
2022/01/30 08:23:00;;;;;;;;;;;;;;;1.97;76.81;102238.19;6243212;23;20207;-78
2022/01/30 08:25:26;;;;;;;;;;;;;;;2.04;76.17;102224.84;6191801;23;19911;-79
2022/01/30 08:27:52;;;;;;;;;;;;;;;2.11;76.57;102231.28;6243582;23;19918;-78
2022/01/30 08:30:17;;;;;;;;;;;;;;;2.20;76.61;102232.97;6245937;23;19927;-78
2022/01/30 08:32:44;;;;;;;;;;;;;;;2.26;76.16;102229.63;6222621;23;20334;-78
2022/01/30 08:35:11;;;;;;;;;;;;;;;2.32;76.00;102230.78;6252729;23;19910;-79
2022/01/30 08:37:37;;;;;;;;;;;;;;;2.37;76.36;102227.63;6250900;23;19914;-77
2022/01/30 08:40:03;;;;;;;;;;;;;;;2.45;76.24;102230.31;6242554;23;19907;-78
2022/01/30 08:42:29;;;;;;;;;;;;;;;2.54;75.91;102229.31;6240852;23;19903;-78
2022/01/30 08:44:54;;;;;;;;;;;;;;;2.64;75.95;102223.72;6221327;23;19915;-77
2022/01/30 08:47:19;;;;;;;;;;;;;;;2.73;75.89;102221.88;6251950;23;19982;-73
2022/01/30 08:49:44;;;;;;;;;;;;;;;2.79;75.62;102203.13;6214655;23;19908;-72
2022/01/30 08:52:12;;;;;;;;;;;;;;;2.87;75.86;102212.25;6189801;23;19915;-72
2022/01/30 08:54:37;;;;;;;;;;;;;;;2.92;75.57;102226.94;6188112;23;19907;-73
2022/01/30 08:57:09;;;;;;;;;;;;;;;3.01;75.55;102216.94;6239065;23;19911;-75
2022/01/30 08:59:42;;;;;;;;;;;;;;;3.13;75.54;102220.13;6217948;23;19907;-75
2022/01/30 09:02:18;;;;;;;;;;;;;;;;;;;;;
2022/01/30 09:04:43;;;;;;;;;;;;;;;3.39;75.28;102205.50;6243198;23;19966;-74
2022/01/30 09:07:11;;;;;;;;;;;;;;;3.47;75.36;102202.78;6244387;23;20233;-74
2022/01/30 09:09:45;;;;;;;;;;;;;;;3.54;75.42;102201.06;6216210;23;19922;-73
2022/01/30 09:12:18;;;;;;;;;;;;;;;3.64;75.26;102209.81;6218304;23;20282;-75
2022/01/30 09:15:02;;;;;;;;;;;;;;;3.80;75.62;102206.19;6192667;23;19990;-74
2022/01/30 09:20:13;;;;;;;;;;;;;;;5.36;77.04;102225.72;6241482;23;19943;-73
2022/01/30 09:22:51;;;;;;;;;;;;;;;6.38;75.73;102218.59;6242269;23;19911;-73
2022/01/30 09:25:16;;;;;;;;;;;;;;;7.52;72.17;102214.00;6242277;23;19950;-73
2022/01/30 09:27:51;;;;;;;;;;;;;;;8.56;70.06;102206.56;6240818;23;20282;-73
2022/01/30 09:30:17;;;;;;;;;;;;;;;9.60;68.68;102218.56;6215175;23;19982;-73
2022/01/30 09:32:46;;;;;;;;;;;;;;;10.52;67.00;102216.63;6242848;23;19985;-74
2022/01/30 09:35:40;;;;;;;;;;;;;;;11.39;65.40;102210.34;6242278;23;19904;-78
2022/01/30 09:38:38;;;;;;;;;;;;;;;12.37;64.12;102209.31;6219860;23;19927;-73
2022/01/30 09:41:18;;;;;;;;;;;;;;;;;;;;;
2022/01/30 09:43:55;;;;;;;;;;;;;;;13.57;59.70;102219.28;6249894;23;19982;-75
2022/01/30 09:46:39;;;;;;;;;;;;;;;13.96;58.11;102216.78;6193378;23;19908;-75
2022/01/30 09:49:15;;;;;;;;;;;;;;;14.43;57.33;102215.72;6243157;23;20322;-75
2022/01/30 09:51:43;;;;;;;;;;;;;;;14.84;55.18;102210.91;6213718;23;19966;-74
2022/01/30 09:54:09;;;;;;;;;;;;;;;15.08;53.22;102208.78;6240812;23;20587;-74
2022/01/30 10:00:09;;;;;;;;;;;;;;;15.52;49.68;102200.56;6232791;23;20318;-77
2022/01/30 10:03:13;;;;;;;;;;;;;;;;;;;;;
2022/01/30 10:06:22;;;;;;;;;;;;;;;16.28;48.96;102192.59;6237591;23;19990;-76
2022/01/30 10:09:09;;;;;;;;;;;;;;;16.90;50.39;102196.75;6242084;23;19908;-76
2022/01/30 10:12:23;;;;;;;;;;;;;;;17.83;50.93;102208.25;6216026;23;19953;-78
2022/01/30 10:15:15;;;;;;;;;;;;;;;;;;;;;
2022/01/30 10:17:48;;;;;;;;;;;;;;;19.27;46.87;102209.16;6247150;23;19983;-76
2022/01/30 10:20:25;;;;;;;;;;;;;;;;;;;;;
2022/01/30 10:23:35;;;;;;;;;;;;;;;;;;;;;
2022/01/30 10:26:12;;;;;;;;;;;;;;;;;;;;;
2022/01/30 10:28:54;;;;;;;;;;;;;;;20.74;41.12;102212.53;6258343;23;19919;-79
2022/01/30 10:31:40;;;;;;;;;;;;;;;21.12;39.29;102200.78;6218263;23;19978;-76
2022/01/30 10:34:28;;;;;;;;;;;;;;;;;;;;;
2022/01/30 10:37:18;;;;;;;;;;;;;;;21.95;37.18;102201.44;6244426;23;19982;-76
2022/01/30 10:40:17;;;;;;;;;;;;;;;;;;;;;
2022/01/30 10:43:21;;;;;;;;;;;;;;;21.90;32.76;102193.16;6240686;23;20271;-76
2022/01/30 10:46:09;;;;;;;;;;;;;;;21.09;32.36;102197.44;6220519;23;19911;-76
2022/01/30 10:49:01;;;;;;;;;;;;;;;;;;;;;
2022/01/30 10:51:28;;;;;;;;;;;;;;;20.15;34.30;102195.75;6244353;22;20398;-77
2022/01/30 10:54:07;;;;;;;;;;;;;;;;;;;;;
2022/01/30 10:56:56;;;;;;;;;;;;;;;;;;;;;
2022/01/30 10:59:52;;;;;;;;;;;;;;;21.82;34.52;102191.06;6243700;23;20659;-77
2022/01/30 11:02:45;;;;;;;;;;;;;;;22.94;36.23;102193.13;6243131;23;19903;-78
2022/01/30 11:05:51;;;;;;;;;;;;;;;24.17;35.57;102195.38;6242302;23;20237;-76
2022/01/30 11:08:45;;;;;;;;;;;;;;;25.15;33.93;102190.88;6242991;23;19903;-76
2022/01/30 11:14:20;;;;;;;;;;;;;;;24.40;31.45;102176.66;6142842;23;19913;-79
2022/01/30 11:17:03;;;;;;;;;;;;;;;24.62;33.25;102167.44;6152676;23;19908;-78
2022/01/30 11:20:06;;;;;;;;;;;;;;;;;;;;;
2022/01/30 11:22:51;;;;;;;;;;;;;;;26.39;31.78;102181.56;6151643;23;20504;-77
2022/01/30 11:25:36;;;;;;;;;;;;;;;27.04;31.32;102173.16;6130120;23;20050;-76
2022/01/30 11:28:04;;;;;;;;;;;;;;;27.89;31.55;102151.66;6153379;23;20316;-79
2022/01/30 11:31:15;;;;;;;;;;;;;;;28.02;28.98;102145.78;6151758;23;19909;-76
2022/01/30 11:33:45;;;;;;;;;;;;;;;27.79;29.79;102147.28;6151255;23;20323;-76
2022/01/30 11:36:31;;;;;;;;;;;;;;;28.24;28.96;102140.13;6152243;23;19955;-76
2022/01/30 11:39:00;;;;;;;;;;;;;;;28.92;29.29;102136.09;6126116;23;20027;-75
2022/01/30 11:41:59;;;;;;;;;;;;;;;;;;;;;
2022/01/30 11:44:26;;;;;;;;;;;;;;;30.39;26.96;102117.19;6125983;23;20705;-74
2022/01/30 11:47:00;;;;;;;;;;;;;;;30.87;26.02;102114.38;6151752;23;19956;-78
2022/01/30 11:50:05;;;;;;;;;;;;;;;30.71;24.14;102109.59;6233179;23;20246;-74
2022/01/30 11:52:58;;;;;;;;;;;;;;;29.67;22.62;102101.03;6242651;22;19916;-73
2022/01/30 11:56:01;;;;;;;;;;;;;;;;;;;;;
2022/01/30 11:59:05;;;;;;;;;;;;;;;;;;;;;
2022/01/30 12:01:34;;;;;;;;;;;;;;;;;;;;;
2022/01/30 12:04:28;;;;;;;;;;;;;;;;;;;;;
2022/01/30 12:10:38;;;;;;;;;;;;;;;;;;;;;
2022/01/30 12:22:47;;;;;;;;;;;;;;;24.72;25.10;102029.25;6242676;23;19952;-74
2022/01/30 12:25:41;;;;;;;;;;;;;;;24.49;25.30;102018.13;6217864;23;20013;-74
2022/01/30 12:28:29;;;;;;;;;;;;;;;;;;;;;
2022/01/30 12:37:15;;;;;;;;;;;;;;;23.46;25.17;102003.19;6164688;23;20352;-75
2022/01/30 12:39:52;;;;;;;;;;;;;;;22.27;25.49;101990.88;6239682;23;19934;-75
2022/01/30 12:42:21;;;;;;;;;;;;;;;21.26;26.42;101973.59;6242303;23;19986;-78
2022/01/30 12:45:14;;;;;;;;;;;;;;;20.89;27.67;101966.91;6217304;23;19907;-76
2022/01/30 12:48:05;;;;;;;;;;;;;;;21.40;28.02;101962.53;6227163;23;19986;-76
2022/01/30 12:50:34;;;;;;;;;;;;;;;22.09;27.74;101962.78;6201736;23;20281;-75
2022/01/30 12:53:01;;;;;;;;;;;;;;;22.69;26.72;101952.69;6243281;22;19920;-76
2022/01/30 12:55:27;;;;;;;;;;;;;;;22.75;24.50;101945.88;6240458;23;19914;-75
2022/01/30 12:57:54;;;;;;;;;;;;;;;22.46;23.73;101941.47;6215775;23;19908;-75
2022/01/30 13:00:19;;;;;;;;;;;;;;;22.07;24.61;101931.63;6216524;23;19943;-77
2022/01/30 13:02:55;;;;;;;;;;;;;;;22.23;25.42;101929.34;6242409;23;19962;-77
2022/01/30 13:05:21;;;;;;;;;;;;;;;22.73;24.97;101937.00;6240833;23;19916;-76
2022/01/30 13:07:56;;;;;;;;;;;;;;;22.99;24.48;101933.63;6215880;23;20396;-77
2022/01/30 13:10:23;;;;;;;;;;;;;;;23.24;23.78;101923.88;6217850;23;19915;-76
2022/01/30 13:12:48;;;;;;;;;;;;;;;23.74;24.87;101914.50;6241907;23;19908;-76
2022/01/30 13:15:15;;;;;;;;;;;;;;;23.91;24.38;101907.41;6242643;23;20192;-76
2022/01/30 13:17:41;;;;;;;;;;;;;;;23.82;23.48;101908.16;6217130;23;19914;-76
2022/01/30 13:20:07;;;;;;;;;;;;;;;23.53;23.00;101917.84;6216128;23;19903;-76
2022/01/30 13:22:37;;;;;;;;;;;;;;;23.29;23.30;101903.38;6259894;23;19918;-75
2022/01/30 13:25:07;;;;;;;;;;;;;;;23.22;22.63;101894.63;6262240;23;19931;-75
2022/01/30 13:27:33;;;;;;;;;;;;;;;23.12;22.52;101890.13;6248634;23;20208;-76
2022/01/30 13:29:59;;;;;;;;;;;;;;;22.80;22.96;101878.84;6216355;23;19957;-75
2022/01/30 13:32:26;;;;;;;;;;;;;;;22.61;23.45;101872.59;6242607;23;19908;-76
2022/01/30 13:34:51;;;;;;;;;;;;;;;22.63;23.64;101864.72;6243720;23;19909;-73
2022/01/30 13:37:24;;;;;;;;;;;;;;;22.57;23.01;101860.41;6243316;23;19931;-74
2022/01/30 13:42:54;;;;;;;;;;;;;;;22.47;23.67;101873.44;6246117;23;19903;-74
2022/01/30 13:48:43;;;;;;;;;;;;;;;22.61;24.04;101851.09;6124450;23;19992;-74
2022/01/30 13:51:26;;;;;;;;;;;;;;;22.99;23.57;101850.78;6096044;23;19916;-73
2022/01/30 13:54:10;;;;;;;;;;;;;;;22.94;22.41;101841.69;6125066;23;19913;-74
2022/01/30 13:56:38;;;;;;;;;;;;;;;21.88;23.60;101839.81;6181751;23;19904;-73
2022/01/30 13:59:04;;;;;;;;;;;;;;;21.16;24.87;101834.69;6187260;23;19908;-74
2022/01/30 14:01:33;;;;;;;;;;;;;;;20.95;25.82;101832.22;6213844;23;19910;-74
2022/01/30 14:04:05;;;;;;;;;;;;;;;21.00;25.78;101826.59;6213221;23;19954;-75
2022/01/30 14:06:33;;;;;;;;;;;;;;;21.10;26.26;101814.50;6211823;23;19911;-73
2022/01/30 14:09:35;;;;;;;;;;;;;;;;;;;;;
2022/01/30 14:12:12;;;;;;;;;;;;;;;21.15;25.72;101816.34;6216880;23;19923;-73
2022/01/30 14:15:06;;;;;;;;;;;;;;;20.19;26.50;101808.03;6195361;23;19991;-73
2022/01/30 14:20:38;;;;;;;;;;;;;;;17.74;29.33;101801.25;6209625;23;19910;-75
2022/01/30 14:23:15;;;;;;;;;;;;;;;16.89;31.65;101803.59;6201532;23;19910;-75
2022/01/30 14:26:06;;;;;;;;;;;;;;;16.75;33.33;101791.38;6192425;23;19927;-74
2022/01/30 14:28:34;;;;;;;;;;;;;;;17.03;33.10;101780.94;6212971;23;20027;-74
2022/01/30 14:31:09;;;;;;;;;;;;;;;17.01;32.92;101772.06;6216562;23;19994;-74
2022/01/30 14:36:49;;;;;;;;;;;;;;;16.02;34.08;101764.69;6206795;23;19958;-75
2022/01/30 14:39:15;;;;;;;;;;;;;;;15.40;34.26;101767.09;6176022;23;19908;-75
2022/01/30 14:44:49;;;;;;;;;;;;;;;14.33;36.63;101756.81;6184653;23;19904;-74
2022/01/30 14:47:18;;;;;;;;;;;;;;;14.18;37.73;101754.72;6221643;23;19928;-75
2022/01/30 14:49:46;;;;;;;;;;;;;;;13.88;38.44;101742.25;6195207;23;19923;-75
2022/01/30 14:55:13;;;;;;;;;;;;;;;;;;;;;
2022/01/30 14:57:39;;;;;;;;;;;;;;;14.13;40.23;101722.50;6247239;23;19994;-73
2022/01/30 15:00:05;;;;;;;;;;;;;;;14.73;37.94;101727.22;6248660;23;19907;-74
2022/01/30 15:02:35;;;;;;;;;;;;;;;15.62;37.55;101713.75;6223308;23;19923;-74
2022/01/30 15:05:00;;;;;;;;;;;;;;;16.81;35.16;101712.94;6222878;23;19907;-74
2022/01/30 15:07:29;;;;;;;;;;;;;;;17.26;33.72;101702.94;6221977;23;19915;-71
2022/01/30 15:09:57;;;;;;;;;;;;;;;17.88;32.55;101699.13;6222785;23;19903;-74
2022/01/30 15:15:13;;;;;;;;;;;;;;;18.45;31.07;101689.38;6226577;23;19904;-71
2022/01/30 15:17:42;;;;;;;;;;;;;;;17.55;31.74;101699.56;6247856;23;19904;-78
2022/01/30 15:20:10;;;;;;;;;;;;;;;16.41;33.06;101692.47;6224599;23;20306;-73
2022/01/30 15:22:36;;;;;;;;;;;;;;;16.37;34.50;101691.38;6249792;23;19904;-74